< Typhoon 197705 1977 Season Typhoon 197707 >
Typhoon 197706 (WANDA)
General InformationDetailed Track InformationTrack Information on Google Maps || Disaster Info.ResourceGoogle EarthGE AnimationAtom FeedGeoJSON
Detalied Best Track Wind (Time Zone = UTC)
Year Month Day Hour Lat. Long. Wind (kt) Gust (kt) Direc. of Major Storm Axis Radius of Major Storm Axis (nm) Radius of Minor Storm Axis (nm) Direc. of Major Gale Axis Radius of Major Gale Axis (nm) Radius of Minor Gale Axis (nm) Image
1977 7 30 00 19.3 139.0 0 0 - - - - - - --
1977 7 30 06 20.2 139.1 0 0 - - - - - - --
1977 7 30 12 21.0 139.3 0 0 - - - - - - --
1977 7 30 18 22.0 139.5 0 0 - - - - - - --
1977 7 31 00 22.7 139.7 0 0 - - - - - - --
1977 7 31 06 23.5 139.9 0 0 - - - - - - --
1977 7 31 12 24.1 140.1 0 0 - - - - - - --
1977 7 31 18 25.0 140.2 0 0 - - - - - - --
1977 8 1 00 25.7 140.2 40 0 - - - symmetric 150 150 --
1977 8 1 06 26.3 140.2 40 0 - - - E 250 150 --
1977 8 1 12 26.8 140.2 40 0 - - - E 250 150 --
1977 8 1 18 27.3 140.3 40 0 - - - E 250 150 --
1977 8 2 00 27.9 140.8 40 0 - - - E 250 150 --
1977 8 2 06 28.2 141.3 40 0 - - - E 250 150 --
1977 8 2 12 28.9 142.0 40 0 - - - E 250 150 --
1977 8 2 18 29.5 143.0 40 0 - - - E 250 150 --
1977 8 3 00 30.2 143.8 40 0 - - - NE 250 150 --
1977 8 3 06 30.6 144.4 40 0 - - - NE 250 150 --
1977 8 3 12 30.8 145.0 40 0 - - - symmetric 150 150 --
1977 8 3 18 31.0 145.7 40 0 - - - symmetric 150 150 --
1977 8 4 00 31.2 146.2 40 0 - - - symmetric 150 150 --
1977 8 4 06 31.5 147.0 40 0 - - - symmetric 150 150 --
1977 8 4 12 31.6 147.8 40 0 - - - symmetric 150 150 --
1977 8 4 18 31.6 148.5 35 0 - - - symmetric 150 150 --
1977 8 5 00 31.7 148.8 35 0 - - - symmetric 150 150 --
1977 8 5 06 32.2 149.7 35 0 - - - symmetric 150 150 --
1977 8 5 12 33.0 150.8 35 0 - - - symmetric 150 150 --
1977 8 5 18 33.7 151.6 35 0 - - - symmetric 150 150 --
1977 8 6 00 34.5 152.3 35 0 - - - symmetric 150 150 --
1977 8 6 06 34.7 153.6 35 0 - - - symmetric 150 150 --
1977 8 6 12 35.0 155.0 35 0 - - - symmetric 150 150 --
1977 8 6 18 36.7 155.8 35 0 - - - symmetric 150 150 --
1977 8 7 00 40.0 154.9 0 0 - - - - - - --
1977 8 7 06 44.0 155.0 0 0 - - - - - - --
1977 8 7 12 47.0 154.3 0 0 - - - - - - --
1977 8 7 18 49.5 155.3 0 0 - - - - - - --
1977 8 8 00 53.0 155.2 0 0 - - - - - - --
1977 8 8 06 55.0 156.2 0 0 - - - - - - --
1977 8 8 12 57.0 159.0 0 0 - - - - - - --
1977 8 8 18 58.0 162.9 0 0 - - - - - - --
1977 8 9 00 58.7 166.0 0 0 - - - - - - --
1977 8 9 06 59.0 169.0 0 0 - - - - - - --
1977 8 9 12 59.5 171.5 0 0 - - - - - - --
1977 8 9 18 59.8 173.2 0 0 - - - - - - --
1977 8 10 00 60.0 175.0 0 0 - - - - - - --
1977 8 10 06 60.0 176.0 0 0 - - - - - - --
1977 8 10 12 60.0 177.2 0 0 - - - - - - --
Japan Meteorological Agency Best Track Data | Correction Date : 1992-10-21
< Typhoon 197705 1977 Season Typhoon 197707 >

Help